sensor_id;sensor_type;location;lat;lon;timestamp;P1;durP1;ratioP1;P2;durP2;ratioP2
42346;SDS011;75728;51.856;6.314;2024-01-27T00:01:31;10.98;;;2.90;;
42346;SDS011;75728;51.856;6.314;2024-01-27T00:03:57;10.63;;;3.40;;
42346;SDS011;75728;51.856;6.314;2024-01-27T00:06:22;9.27;;;2.67;;
42346;SDS011;75728;51.856;6.314;2024-01-27T00:08:48;13.10;;;2.85;;
42346;SDS011;75728;51.856;6.314;2024-01-27T00:11:14;8.98;;;2.72;;
42346;SDS011;75728;51.856;6.314;2024-01-27T00:13:39;10.38;;;2.92;;
42346;SDS011;75728;51.856;6.314;2024-01-27T00:16:05;8.32;;;2.55;;
42346;SDS011;75728;51.856;6.314;2024-01-27T00:18:31;10.20;;;2.40;;
42346;SDS011;75728;51.856;6.314;2024-01-27T00:20:57;9.43;;;2.33;;
42346;SDS011;75728;51.856;6.314;2024-01-27T00:23:22;7.03;;;2.58;;
42346;SDS011;75728;51.856;6.314;2024-01-27T00:25:48;11.38;;;2.33;;
42346;SDS011;75728;51.856;6.314;2024-01-27T00:28:14;9.48;;;2.92;;
42346;SDS011;75728;51.856;6.314;2024-01-27T00:30:39;8.13;;;2.63;;
42346;SDS011;75728;51.856;6.314;2024-01-27T00:33:05;9.65;;;2.45;;
42346;SDS011;75728;51.856;6.314;2024-01-27T00:35:30;8.95;;;2.47;;
42346;SDS011;75728;51.856;6.314;2024-01-27T00:37:57;9.35;;;2.30;;
42346;SDS011;75728;51.856;6.314;2024-01-27T00:40:22;12.02;;;3.25;;
42346;SDS011;75728;51.856;6.314;2024-01-27T00:42:48;10.95;;;2.55;;
42346;SDS011;75728;51.856;6.314;2024-01-27T00:45:14;8.75;;;2.38;;
42346;SDS011;75728;51.856;6.314;2024-01-27T00:47:39;7.70;;;2.17;;
42346;SDS011;75728;51.856;6.314;2024-01-27T00:50:05;8.10;;;2.50;;
42346;SDS011;75728;51.856;6.314;2024-01-27T00:52:33;8.52;;;2.00;;
42346;SDS011;75728;51.856;6.314;2024-01-27T00:54:59;10.10;;;2.72;;
42346;SDS011;75728;51.856;6.314;2024-01-27T00:57:25;12.02;;;2.50;;
42346;SDS011;75728;51.856;6.314;2024-01-27T00:59:50;8.70;;;2.38;;
42346;SDS011;75728;51.856;6.314;2024-01-27T01:02:16;8.48;;;2.38;;
42346;SDS011;75728;51.856;6.314;2024-01-27T01:04:41;7.68;;;2.85;;
42346;SDS011;75728;51.856;6.314;2024-01-27T01:07:07;8.55;;;2.55;;
42346;SDS011;75728;51.856;6.314;2024-01-27T01:09:33;9.20;;;2.75;;
42346;SDS011;75728;51.856;6.314;2024-01-27T01:11:59;8.60;;;2.20;;
42346;SDS011;75728;51.856;6.314;2024-01-27T01:14:24;10.48;;;3.05;;
42346;SDS011;75728;51.856;6.314;2024-01-27T01:16:50;9.55;;;2.55;;
42346;SDS011;75728;51.856;6.314;2024-01-27T01:19:15;11.98;;;2.38;;
42346;SDS011;75728;51.856;6.314;2024-01-27T01:21:41;9.95;;;2.78;;
42346;SDS011;75728;51.856;6.314;2024-01-27T01:24:07;7.07;;;2.25;;
42346;SDS011;75728;51.856;6.314;2024-01-27T01:26:32;9.02;;;2.60;;
42346;SDS011;75728;51.856;6.314;2024-01-27T01:28:58;8.10;;;2.17;;
42346;SDS011;75728;51.856;6.314;2024-01-27T01:31:24;9.35;;;2.22;;
42346;SDS011;75728;51.856;6.314;2024-01-27T01:33:49;8.45;;;2.20;;
42346;SDS011;75728;51.856;6.314;2024-01-27T01:36:15;9.75;;;2.35;;
42346;SDS011;75728;51.856;6.314;2024-01-27T01:38:41;10.18;;;2.80;;
42346;SDS011;75728;51.856;6.314;2024-01-27T01:41:07;9.63;;;2.67;;
42346;SDS011;75728;51.856;6.314;2024-01-27T01:43:33;7.72;;;1.95;;
42346;SDS011;75728;51.856;6.314;2024-01-27T01:45:58;10.13;;;2.63;;
42346;SDS011;75728;51.856;6.314;2024-01-27T01:48:24;8.75;;;2.20;;
42346;SDS011;75728;51.856;6.314;2024-01-27T01:50:50;9.07;;;2.63;;
42346;SDS011;75728;51.856;6.314;2024-01-27T01:53:15;9.18;;;2.85;;
42346;SDS011;75728;51.856;6.314;2024-01-27T01:55:41;8.18;;;2.28;;
42346;SDS011;75728;51.856;6.314;2024-01-27T01:58:07;7.63;;;2.53;;
42346;SDS011;75728;51.856;6.314;2024-01-27T02:00:33;9.10;;;2.63;;
42346;SDS011;75728;51.856;6.314;2024-01-27T02:02:59;7.88;;;2.70;;
42346;SDS011;75728;51.856;6.314;2024-01-27T02:05:24;11.50;;;2.78;;
42346;SDS011;75728;51.856;6.314;2024-01-27T02:07:50;9.02;;;3.03;;
42346;SDS011;75728;51.856;6.314;2024-01-27T02:10:16;10.23;;;2.90;;
42346;SDS011;75728;51.856;6.314;2024-01-27T02:12:43;5.72;;;2.42;;
42346;SDS011;75728;51.856;6.314;2024-01-27T02:15:12;8.85;;;2.25;;
42346;SDS011;75728;51.856;6.314;2024-01-27T02:17:39;9.25;;;1.95;;
42346;SDS011;75728;51.856;6.314;2024-01-27T02:20:08;9.57;;;2.63;;
42346;SDS011;75728;51.856;6.314;2024-01-27T02:22:34;10.60;;;2.70;;
42346;SDS011;75728;51.856;6.314;2024-01-27T02:25:00;9.63;;;2.53;;
42346;SDS011;75728;51.856;6.314;2024-01-27T02:27:27;9.10;;;2.90;;
42346;SDS011;75728;51.856;6.314;2024-01-27T02:29:52;7.15;;;2.40;;
42346;SDS011;75728;51.856;6.314;2024-01-27T02:32:18;7.20;;;2.70;;
42346;SDS011;75728;51.856;6.314;2024-01-27T02:34:44;8.82;;;2.80;;
42346;SDS011;75728;51.856;6.314;2024-01-27T02:37:09;8.60;;;2.95;;
42346;SDS011;75728;51.856;6.314;2024-01-27T02:39:35;11.98;;;3.33;;
42346;SDS011;75728;51.856;6.314;2024-01-27T02:42:01;8.15;;;2.72;;
42346;SDS011;75728;51.856;6.314;2024-01-27T02:44:27;11.60;;;2.75;;
42346;SDS011;75728;51.856;6.314;2024-01-27T02:46:52;9.20;;;2.70;;
42346;SDS011;75728;51.856;6.314;2024-01-27T02:49:18;10.82;;;3.17;;
42346;SDS011;75728;51.856;6.314;2024-01-27T02:51:44;9.73;;;2.60;;
42346;SDS011;75728;51.856;6.314;2024-01-27T02:54:09;7.30;;;2.42;;
42346;SDS011;75728;51.856;6.314;2024-01-27T02:56:35;7.90;;;2.20;;
42346;SDS011;75728;51.856;6.314;2024-01-27T02:59:01;7.63;;;2.47;;
42346;SDS011;75728;51.856;6.314;2024-01-27T03:01:27;7.30;;;2.72;;
42346;SDS011;75728;51.856;6.314;2024-01-27T03:03:52;8.57;;;3.53;;
42346;SDS011;75728;51.856;6.314;2024-01-27T03:06:18;11.95;;;9.80;;
42346;SDS011;75728;51.856;6.314;2024-01-27T03:08:44;10.90;;;2.78;;
42346;SDS011;75728;51.856;6.314;2024-01-27T03:11:09;9.68;;;3.00;;
42346;SDS011;75728;51.856;6.314;2024-01-27T03:13:35;7.95;;;2.45;;
42346;SDS011;75728;51.856;6.314;2024-01-27T03:16:01;10.00;;;2.67;;
42346;SDS011;75728;51.856;6.314;2024-01-27T03:18:27;7.78;;;2.63;;
42346;SDS011;75728;51.856;6.314;2024-01-27T03:20:53;9.00;;;3.00;;
42346;SDS011;75728;51.856;6.314;2024-01-27T03:23:18;7.45;;;2.50;;
42346;SDS011;75728;51.856;6.314;2024-01-27T03:25:44;10.35;;;2.90;;
42346;SDS011;75728;51.856;6.314;2024-01-27T03:28:10;10.55;;;3.00;;
42346;SDS011;75728;51.856;6.314;2024-01-27T03:30:35;8.77;;;3.13;;
42346;SDS011;75728;51.856;6.314;2024-01-27T03:33:01;13.70;;;3.05;;
42346;SDS011;75728;51.856;6.314;2024-01-27T03:35:27;10.38;;;3.00;;
42346;SDS011;75728;51.856;6.314;2024-01-27T03:37:52;14.05;;;3.88;;
42346;SDS011;75728;51.856;6.314;2024-01-27T03:40:18;10.65;;;3.10;;
42346;SDS011;75728;51.856;6.314;2024-01-27T03:42:44;9.73;;;2.78;;
42346;SDS011;75728;51.856;6.314;2024-01-27T03:45:09;9.77;;;3.10;;
42346;SDS011;75728;51.856;6.314;2024-01-27T03:47:35;11.65;;;2.97;;
42346;SDS011;75728;51.856;6.314;2024-01-27T03:50:00;8.73;;;2.70;;
42346;SDS011;75728;51.856;6.314;2024-01-27T03:52:26;10.00;;;2.75;;
42346;SDS011;75728;51.856;6.314;2024-01-27T03:54:51;8.80;;;2.88;;
42346;SDS011;75728;51.856;6.314;2024-01-27T03:57:17;8.65;;;3.10;;
42346;SDS011;75728;51.856;6.314;2024-01-27T03:59:43;10.82;;;3.50;;
42346;SDS011;75728;51.856;6.314;2024-01-27T04:02:08;12.82;;;3.67;;
42346;SDS011;75728;51.856;6.314;2024-01-27T04:04:34;9.48;;;3.03;;
42346;SDS011;75728;51.856;6.314;2024-01-27T04:06:59;8.75;;;3.33;;
42346;SDS011;75728;51.856;6.314;2024-01-27T04:09:26;9.55;;;3.60;;
42346;SDS011;75728;51.856;6.314;2024-01-27T04:11:52;8.95;;;2.88;;
42346;SDS011;75728;51.856;6.314;2024-01-27T04:14:18;9.40;;;3.15;;
42346;SDS011;75728;51.856;6.314;2024-01-27T04:16:43;10.05;;;3.30;;
42346;SDS011;75728;51.856;6.314;2024-01-27T04:19:09;10.00;;;3.15;;
42346;SDS011;75728;51.856;6.314;2024-01-27T04:21:35;10.60;;;3.40;;
42346;SDS011;75728;51.856;6.314;2024-01-27T04:24:00;9.18;;;2.85;;
42346;SDS011;75728;51.856;6.314;2024-01-27T04:26:26;10.38;;;3.45;;
42346;SDS011;75728;51.856;6.314;2024-01-27T04:28:52;11.90;;;4.00;;
42346;SDS011;75728;51.856;6.314;2024-01-27T04:31:17;11.20;;;3.90;;
42346;SDS011;75728;51.856;6.314;2024-01-27T04:33:43;11.43;;;3.83;;
42346;SDS011;75728;51.856;6.314;2024-01-27T04:36:08;11.00;;;3.65;;
42346;SDS011;75728;51.856;6.314;2024-01-27T04:38:35;10.60;;;3.55;;
42346;SDS011;75728;51.856;6.314;2024-01-27T04:41:01;11.10;;;3.13;;
42346;SDS011;75728;51.856;6.314;2024-01-27T04:43:27;10.38;;;3.63;;
42346;SDS011;75728;51.856;6.314;2024-01-27T04:45:53;10.15;;;3.50;;
42346;SDS011;75728;51.856;6.314;2024-01-27T04:48:19;8.27;;;3.50;;
42346;SDS011;75728;51.856;6.314;2024-01-27T04:50:46;10.23;;;3.33;;
42346;SDS011;75728;51.856;6.314;2024-01-27T04:53:12;11.32;;;4.32;;
42346;SDS011;75728;51.856;6.314;2024-01-27T04:55:37;11.60;;;3.40;;
42346;SDS011;75728;51.856;6.314;2024-01-27T04:58:03;9.50;;;3.50;;
42346;SDS011;75728;51.856;6.314;2024-01-27T05:00:29;9.60;;;3.63;;
42346;SDS011;75728;51.856;6.314;2024-01-27T05:02:55;9.25;;;4.05;;
42346;SDS011;75728;51.856;6.314;2024-01-27T05:05:22;13.07;;;3.67;;
42346;SDS011;75728;51.856;6.314;2024-01-27T05:07:48;10.70;;;3.80;;
42346;SDS011;75728;51.856;6.314;2024-01-27T05:10:16;12.63;;;4.13;;
42346;SDS011;75728;51.856;6.314;2024-01-27T05:12:42;15.18;;;4.10;;
42346;SDS011;75728;51.856;6.314;2024-01-27T05:15:09;10.27;;;3.67;;
42346;SDS011;75728;51.856;6.314;2024-01-27T05:17:36;12.07;;;4.00;;
42346;SDS011;75728;51.856;6.314;2024-01-27T05:20:01;9.50;;;3.78;;
42346;SDS011;75728;51.856;6.314;2024-01-27T05:22:29;11.73;;;3.55;;
42346;SDS011;75728;51.856;6.314;2024-01-27T05:24:55;9.63;;;3.85;;
42346;SDS011;75728;51.856;6.314;2024-01-27T05:27:20;13.02;;;3.80;;
42346;SDS011;75728;51.856;6.314;2024-01-27T05:29:46;8.55;;;3.70;;
42346;SDS011;75728;51.856;6.314;2024-01-27T05:32:11;10.95;;;3.90;;
42346;SDS011;75728;51.856;6.314;2024-01-27T05:34:37;10.35;;;3.83;;
42346;SDS011;75728;51.856;6.314;2024-01-27T05:37:03;14.10;;;3.92;;
42346;SDS011;75728;51.856;6.314;2024-01-27T05:39:28;11.10;;;3.88;;
42346;SDS011;75728;51.856;6.314;2024-01-27T05:41:54;12.80;;;4.10;;
42346;SDS011;75728;51.856;6.314;2024-01-27T05:44:20;9.85;;;3.80;;
42346;SDS011;75728;51.856;6.314;2024-01-27T05:46:46;10.20;;;3.58;;
42346;SDS011;75728;51.856;6.314;2024-01-27T05:49:12;10.48;;;4.40;;
42346;SDS011;75728;51.856;6.314;2024-01-27T05:51:37;11.20;;;3.83;;
42346;SDS011;75728;51.856;6.314;2024-01-27T05:54:03;14.00;;;4.30;;
42346;SDS011;75728;51.856;6.314;2024-01-27T05:56:28;14.48;;;4.93;;
42346;SDS011;75728;51.856;6.314;2024-01-27T05:58:54;10.73;;;3.70;;
42346;SDS011;75728;51.856;6.314;2024-01-27T06:01:20;11.40;;;4.00;;
42346;SDS011;75728;51.856;6.314;2024-01-27T06:03:45;9.60;;;3.80;;
42346;SDS011;75728;51.856;6.314;2024-01-27T06:06:11;9.38;;;3.70;;
42346;SDS011;75728;51.856;6.314;2024-01-27T06:08:37;9.02;;;3.70;;
42346;SDS011;75728;51.856;6.314;2024-01-27T06:11:02;11.20;;;3.60;;
42346;SDS011;75728;51.856;6.314;2024-01-27T06:13:28;12.02;;;3.88;;
42346;SDS011;75728;51.856;6.314;2024-01-27T06:15:54;10.48;;;3.70;;
42346;SDS011;75728;51.856;6.314;2024-01-27T06:18:20;16.05;;;4.28;;
42346;SDS011;75728;51.856;6.314;2024-01-27T06:20:46;9.45;;;4.07;;
42346;SDS011;75728;51.856;6.314;2024-01-27T06:23:11;12.40;;;4.03;;
42346;SDS011;75728;51.856;6.314;2024-01-27T06:25:37;9.82;;;4.05;;
42346;SDS011;75728;51.856;6.314;2024-01-27T06:28:03;11.27;;;4.30;;
42346;SDS011;75728;51.856;6.314;2024-01-27T06:30:29;10.82;;;3.80;;
42346;SDS011;75728;51.856;6.314;2024-01-27T06:32:54;12.02;;;4.20;;
42346;SDS011;75728;51.856;6.314;2024-01-27T06:35:20;10.35;;;3.97;;
42346;SDS011;75728;51.856;6.314;2024-01-27T06:37:45;12.02;;;3.97;;
42346;SDS011;75728;51.856;6.314;2024-01-27T06:40:12;10.98;;;4.65;;
42346;SDS011;75728;51.856;6.314;2024-01-27T06:42:37;10.75;;;3.78;;
42346;SDS011;75728;51.856;6.314;2024-01-27T06:45:03;10.90;;;4.10;;
42346;SDS011;75728;51.856;6.314;2024-01-27T06:47:29;16.10;;;4.13;;
42346;SDS011;75728;51.856;6.314;2024-01-27T06:49:55;11.95;;;4.32;;
42346;SDS011;75728;51.856;6.314;2024-01-27T06:52:20;9.93;;;4.30;;
42346;SDS011;75728;51.856;6.314;2024-01-27T06:54:46;13.15;;;4.03;;
42346;SDS011;75728;51.856;6.314;2024-01-27T06:57:18;12.82;;;4.72;;
42346;SDS011;75728;51.856;6.314;2024-01-27T06:59:46;11.38;;;4.10;;
42346;SDS011;75728;51.856;6.314;2024-01-27T07:02:17;13.45;;;4.35;;
42346;SDS011;75728;51.856;6.314;2024-01-27T07:04:48;13.38;;;4.63;;
42346;SDS011;75728;51.856;6.314;2024-01-27T07:07:14;11.75;;;4.10;;
42346;SDS011;75728;51.856;6.314;2024-01-27T07:09:40;9.43;;;4.03;;
42346;SDS011;75728;51.856;6.314;2024-01-27T07:12:05;9.63;;;4.40;;
42346;SDS011;75728;51.856;6.314;2024-01-27T07:14:31;12.45;;;4.65;;
42346;SDS011;75728;51.856;6.314;2024-01-27T07:16:57;11.13;;;3.75;;
42346;SDS011;75728;51.856;6.314;2024-01-27T07:19:23;11.75;;;4.03;;
42346;SDS011;75728;51.856;6.314;2024-01-27T07:21:48;10.60;;;4.82;;
42346;SDS011;75728;51.856;6.314;2024-01-27T07:24:14;13.27;;;3.83;;
42346;SDS011;75728;51.856;6.314;2024-01-27T07:26:39;9.45;;;4.00;;
42346;SDS011;75728;51.856;6.314;2024-01-27T07:29:07;11.95;;;4.07;;
42346;SDS011;75728;51.856;6.314;2024-01-27T07:31:33;9.57;;;3.90;;
42346;SDS011;75728;51.856;6.314;2024-01-27T07:33:58;10.98;;;3.50;;
42346;SDS011;75728;51.856;6.314;2024-01-27T07:36:24;9.27;;;4.07;;
42346;SDS011;75728;51.856;6.314;2024-01-27T07:38:51;11.25;;;3.85;;
42346;SDS011;75728;51.856;6.314;2024-01-27T07:41:17;10.70;;;4.78;;
42346;SDS011;75728;51.856;6.314;2024-01-27T07:43:42;9.52;;;3.83;;
42346;SDS011;75728;51.856;6.314;2024-01-27T07:46:08;9.40;;;3.83;;
42346;SDS011;75728;51.856;6.314;2024-01-27T07:48:33;7.57;;;3.50;;
42346;SDS011;75728;51.856;6.314;2024-01-27T07:50:59;11.90;;;3.97;;
42346;SDS011;75728;51.856;6.314;2024-01-27T07:53:25;12.43;;;4.05;;
42346;SDS011;75728;51.856;6.314;2024-01-27T07:55:51;10.23;;;3.92;;
42346;SDS011;75728;51.856;6.314;2024-01-27T07:58:18;9.75;;;3.83;;
42346;SDS011;75728;51.856;6.314;2024-01-27T08:00:44;8.30;;;3.83;;
42346;SDS011;75728;51.856;6.314;2024-01-27T08:03:10;10.45;;;3.47;;
42346;SDS011;75728;51.856;6.314;2024-01-27T08:05:35;12.40;;;4.30;;
42346;SDS011;75728;51.856;6.314;2024-01-27T08:08:01;8.20;;;4.65;;
42346;SDS011;75728;51.856;6.314;2024-01-27T08:10:27;14.45;;;4.60;;
42346;SDS011;75728;51.856;6.314;2024-01-27T08:12:52;12.98;;;4.45;;
42346;SDS011;75728;51.856;6.314;2024-01-27T08:15:18;15.43;;;5.03;;
42346;SDS011;75728;51.856;6.314;2024-01-27T08:17:43;11.77;;;4.95;;
42346;SDS011;75728;51.856;6.314;2024-01-27T08:20:09;10.40;;;3.92;;
42346;SDS011;75728;51.856;6.314;2024-01-27T08:22:35;11.07;;;4.13;;
42346;SDS011;75728;51.856;6.314;2024-01-27T08:25:01;11.23;;;3.95;;
42346;SDS011;75728;51.856;6.314;2024-01-27T08:27:26;11.40;;;4.13;;
42346;SDS011;75728;51.856;6.314;2024-01-27T08:29:52;12.00;;;5.13;;
42346;SDS011;75728;51.856;6.314;2024-01-27T08:32:18;10.82;;;4.40;;
42346;SDS011;75728;51.856;6.314;2024-01-27T08:34:43;11.43;;;4.75;;
42346;SDS011;75728;51.856;6.314;2024-01-27T08:37:17;14.35;;;5.25;;
42346;SDS011;75728;51.856;6.314;2024-01-27T08:39:44;15.50;;;4.65;;
42346;SDS011;75728;51.856;6.314;2024-01-27T08:42:10;11.65;;;4.25;;
42346;SDS011;75728;51.856;6.314;2024-01-27T08:44:37;12.32;;;4.70;;
42346;SDS011;75728;51.856;6.314;2024-01-27T08:47:03;11.50;;;4.07;;
42346;SDS011;75728;51.856;6.314;2024-01-27T08:49:29;12.43;;;4.93;;
42346;SDS011;75728;51.856;6.314;2024-01-27T08:51:54;11.85;;;4.25;;
42346;SDS011;75728;51.856;6.314;2024-01-27T08:54:20;11.65;;;4.50;;
42346;SDS011;75728;51.856;6.314;2024-01-27T08:56:46;13.70;;;5.00;;
42346;SDS011;75728;51.856;6.314;2024-01-27T08:59:12;13.07;;;4.50;;
42346;SDS011;75728;51.856;6.314;2024-01-27T09:01:37;9.95;;;4.57;;
42346;SDS011;75728;51.856;6.314;2024-01-27T09:04:03;12.60;;;5.35;;
42346;SDS011;75728;51.856;6.314;2024-01-27T09:06:28;13.23;;;4.45;;
42346;SDS011;75728;51.856;6.314;2024-01-27T09:08:54;13.00;;;5.13;;
42346;SDS011;75728;51.856;6.314;2024-01-27T09:11:20;15.10;;;5.45;;
42346;SDS011;75728;51.856;6.314;2024-01-27T09:13:47;13.30;;;5.40;;
42346;SDS011;75728;51.856;6.314;2024-01-27T09:16:13;14.73;;;5.85;;
42346;SDS011;75728;51.856;6.314;2024-01-27T09:18:39;12.63;;;4.95;;
42346;SDS011;75728;51.856;6.314;2024-01-27T09:21:06;15.85;;;4.85;;
42346;SDS011;75728;51.856;6.314;2024-01-27T09:23:31;14.27;;;5.50;;
42346;SDS011;75728;51.856;6.314;2024-01-27T09:25:57;15.05;;;5.80;;
42346;SDS011;75728;51.856;6.314;2024-01-27T09:28:23;12.90;;;4.82;;
42346;SDS011;75728;51.856;6.314;2024-01-27T09:30:49;15.00;;;6.05;;
42346;SDS011;75728;51.856;6.314;2024-01-27T09:33:15;15.75;;;4.97;;
42346;SDS011;75728;51.856;6.314;2024-01-27T09:35:42;16.55;;;5.13;;
42346;SDS011;75728;51.856;6.314;2024-01-27T09:38:08;13.13;;;5.20;;
42346;SDS011;75728;51.856;6.314;2024-01-27T09:40:36;14.18;;;4.93;;
42346;SDS011;75728;51.856;6.314;2024-01-27T09:43:02;12.20;;;5.30;;
42346;SDS011;75728;51.856;6.314;2024-01-27T09:45:28;14.30;;;5.38;;
42346;SDS011;75728;51.856;6.314;2024-01-27T09:47:56;11.50;;;5.32;;
42346;SDS011;75728;51.856;6.314;2024-01-27T09:50:25;12.80;;;4.85;;
42346;SDS011;75728;51.856;6.314;2024-01-27T09:52:50;11.70;;;4.95;;
42346;SDS011;75728;51.856;6.314;2024-01-27T09:55:16;14.60;;;5.60;;
42346;SDS011;75728;51.856;6.314;2024-01-27T09:57:42;16.20;;;5.18;;
42346;SDS011;75728;51.856;6.314;2024-01-27T10:00:10;12.25;;;5.00;;
42346;SDS011;75728;51.856;6.314;2024-01-27T10:02:38;9.18;;;4.78;;
42346;SDS011;75728;51.856;6.314;2024-01-27T10:05:07;11.20;;;4.88;;
42346;SDS011;75728;51.856;6.314;2024-01-27T10:07:34;14.40;;;5.05;;
42346;SDS011;75728;51.856;6.314;2024-01-27T10:09:59;11.38;;;4.68;;
42346;SDS011;75728;51.856;6.314;2024-01-27T10:12:26;11.20;;;4.97;;
42346;SDS011;75728;51.856;6.314;2024-01-27T10:14:53;12.30;;;5.30;;
42346;SDS011;75728;51.856;6.314;2024-01-27T10:17:19;13.75;;;4.72;;
42346;SDS011;75728;51.856;6.314;2024-01-27T10:19:47;12.32;;;4.47;;
42346;SDS011;75728;51.856;6.314;2024-01-27T10:22:24;13.73;;;4.95;;
42346;SDS011;75728;51.856;6.314;2024-01-27T10:24:51;14.73;;;5.45;;
42346;SDS011;75728;51.856;6.314;2024-01-27T10:27:17;11.00;;;4.90;;
42346;SDS011;75728;51.856;6.314;2024-01-27T10:29:56;17.17;;;5.63;;
42346;SDS011;75728;51.856;6.314;2024-01-27T10:32:21;13.55;;;5.05;;
42346;SDS011;75728;51.856;6.314;2024-01-27T10:35:00;10.82;;;4.72;;
42346;SDS011;75728;51.856;6.314;2024-01-27T10:37:36;12.85;;;5.10;;
42346;SDS011;75728;51.856;6.314;2024-01-27T10:40:03;13.38;;;5.13;;
42346;SDS011;75728;51.856;6.314;2024-01-27T10:42:30;12.80;;;5.13;;
42346;SDS011;75728;51.856;6.314;2024-01-27T10:44:59;13.30;;;5.57;;
42346;SDS011;75728;51.856;6.314;2024-01-27T10:47:28;14.60;;;4.85;;
42346;SDS011;75728;51.856;6.314;2024-01-27T10:49:57;14.25;;;5.43;;
42346;SDS011;75728;51.856;6.314;2024-01-27T10:52:25;15.48;;;5.07;;
42346;SDS011;75728;51.856;6.314;2024-01-27T10:55:03;13.40;;;5.22;;
42346;SDS011;75728;51.856;6.314;2024-01-27T10:57:35;11.23;;;4.97;;
42346;SDS011;75728;51.856;6.314;2024-01-27T11:00:02;13.25;;;5.00;;
42346;SDS011;75728;51.856;6.314;2024-01-27T11:02:33;14.63;;;5.22;;
42346;SDS011;75728;51.856;6.314;2024-01-27T11:05:00;16.20;;;5.70;;
42346;SDS011;75728;51.856;6.314;2024-01-27T11:07:30;13.90;;;5.00;;
42346;SDS011;75728;51.856;6.314;2024-01-27T11:09:58;11.30;;;4.70;;
42346;SDS011;75728;51.856;6.314;2024-01-27T11:12:23;10.73;;;4.43;;
42346;SDS011;75728;51.856;6.314;2024-01-27T11:14:50;15.70;;;5.95;;
42346;SDS011;75728;51.856;6.314;2024-01-27T11:17:17;13.27;;;4.95;;
42346;SDS011;75728;51.856;6.314;2024-01-27T11:19:44;16.20;;;4.18;;
42346;SDS011;75728;51.856;6.314;2024-01-27T11:22:23;13.23;;;4.45;;
42346;SDS011;75728;51.856;6.314;2024-01-27T11:24:51;10.18;;;4.28;;
42346;SDS011;75728;51.856;6.314;2024-01-27T11:27:17;18.52;;;5.10;;
42346;SDS011;75728;51.856;6.314;2024-01-27T11:29:46;10.48;;;4.25;;
42346;SDS011;75728;51.856;6.314;2024-01-27T11:32:13;12.93;;;4.85;;
42346;SDS011;75728;51.856;6.314;2024-01-27T11:34:49;11.60;;;4.50;;
42346;SDS011;75728;51.856;6.314;2024-01-27T11:37:15;12.63;;;4.10;;
42346;SDS011;75728;51.856;6.314;2024-01-27T11:39:41;12.95;;;3.85;;
42346;SDS011;75728;51.856;6.314;2024-01-27T11:42:10;13.50;;;4.50;;
42346;SDS011;75728;51.856;6.314;2024-01-27T11:44:40;12.93;;;4.40;;
42346;SDS011;75728;51.856;6.314;2024-01-27T11:47:19;9.75;;;3.78;;
42346;SDS011;75728;51.856;6.314;2024-01-27T11:49:52;10.15;;;4.07;;
42346;SDS011;75728;51.856;6.314;2024-01-27T11:52:19;12.55;;;5.65;;
42346;SDS011;75728;51.856;6.314;2024-01-27T11:54:45;11.77;;;5.28;;
42346;SDS011;75728;51.856;6.314;2024-01-27T11:57:10;13.18;;;4.35;;
42346;SDS011;75728;51.856;6.314;2024-01-27T11:59:36;13.82;;;5.25;;
42346;SDS011;75728;51.856;6.314;2024-01-27T12:02:02;14.00;;;5.13;;
42346;SDS011;75728;51.856;6.314;2024-01-27T12:04:28;10.82;;;4.10;;
42346;SDS011;75728;51.856;6.314;2024-01-27T12:06:54;10.80;;;4.55;;
42346;SDS011;75728;51.856;6.314;2024-01-27T12:09:19;14.70;;;4.65;;
42346;SDS011;75728;51.856;6.314;2024-01-27T12:11:45;12.63;;;4.50;;
42346;SDS011;75728;51.856;6.314;2024-01-27T12:14:11;11.35;;;4.40;;
42346;SDS011;75728;51.856;6.314;2024-01-27T12:16:37;13.10;;;4.40;;
42346;SDS011;75728;51.856;6.314;2024-01-27T12:19:03;13.85;;;3.95;;
42346;SDS011;75728;51.856;6.314;2024-01-27T12:21:29;16.05;;;4.70;;
42346;SDS011;75728;51.856;6.314;2024-01-27T12:23:58;11.73;;;3.80;;
42346;SDS011;75728;51.856;6.314;2024-01-27T12:26:28;11.93;;;3.50;;
42346;SDS011;75728;51.856;6.314;2024-01-27T12:28:54;11.30;;;3.95;;
42346;SDS011;75728;51.856;6.314;2024-01-27T12:31:21;11.38;;;4.13;;
42346;SDS011;75728;51.856;6.314;2024-01-27T12:33:51;12.77;;;3.92;;
42346;SDS011;75728;51.856;6.314;2024-01-27T12:36:18;10.15;;;3.25;;
42346;SDS011;75728;51.856;6.314;2024-01-27T12:39:03;9.82;;;3.50;;
42346;SDS011;75728;51.856;6.314;2024-01-27T12:43:57;12.48;;;3.63;;
42346;SDS011;75728;51.856;6.314;2024-01-27T12:46:23;10.88;;;3.60;;
42346;SDS011;75728;51.856;6.314;2024-01-27T12:48:49;12.48;;;3.45;;
42346;SDS011;75728;51.856;6.314;2024-01-27T12:51:14;15.55;;;4.03;;
42346;SDS011;75728;51.856;6.314;2024-01-27T12:53:41;7.63;;;2.55;;
42346;SDS011;75728;51.856;6.314;2024-01-27T12:56:12;11.43;;;3.15;;
42346;SDS011;75728;51.856;6.314;2024-01-27T12:58:39;9.10;;;3.10;;
42346;SDS011;75728;51.856;6.314;2024-01-27T13:01:06;10.32;;;3.38;;
42346;SDS011;75728;51.856;6.314;2024-01-27T13:03:32;11.30;;;3.53;;
42346;SDS011;75728;51.856;6.314;2024-01-27T13:05:58;8.30;;;2.92;;
42346;SDS011;75728;51.856;6.314;2024-01-27T13:08:24;11.43;;;3.65;;
42346;SDS011;75728;51.856;6.314;2024-01-27T13:10:50;12.82;;;4.93;;
42346;SDS011;75728;51.856;6.314;2024-01-27T13:13:16;12.00;;;4.53;;
42346;SDS011;75728;51.856;6.314;2024-01-27T13:15:42;9.88;;;3.60;;
42346;SDS011;75728;51.856;6.314;2024-01-27T13:18:08;12.23;;;3.35;;
42346;SDS011;75728;51.856;6.314;2024-01-27T13:20:35;7.43;;;2.90;;
42346;SDS011;75728;51.856;6.314;2024-01-27T13:23:05;9.88;;;3.70;;
42346;SDS011;75728;51.856;6.314;2024-01-27T13:25:31;10.35;;;3.00;;
42346;SDS011;75728;51.856;6.314;2024-01-27T13:27:57;10.85;;;3.30;;
42346;SDS011;75728;51.856;6.314;2024-01-27T13:30:22;10.95;;;3.50;;
42346;SDS011;75728;51.856;6.314;2024-01-27T13:32:49;9.07;;;3.38;;
42346;SDS011;75728;51.856;6.314;2024-01-27T13:35:14;13.13;;;4.03;;
42346;SDS011;75728;51.856;6.314;2024-01-27T13:37:40;12.18;;;3.95;;
42346;SDS011;75728;51.856;6.314;2024-01-27T13:40:06;7.20;;;2.67;;
42346;SDS011;75728;51.856;6.314;2024-01-27T13:42:35;9.93;;;3.47;;
42346;SDS011;75728;51.856;6.314;2024-01-27T13:45:01;11.68;;;3.70;;
42346;SDS011;75728;51.856;6.314;2024-01-27T13:47:27;9.60;;;3.40;;
42346;SDS011;75728;51.856;6.314;2024-01-27T13:49:53;16.08;;;6.05;;
42346;SDS011;75728;51.856;6.314;2024-01-27T13:52:19;11.70;;;3.97;;
42346;SDS011;75728;51.856;6.314;2024-01-27T13:54:44;12.77;;;4.68;;
42346;SDS011;75728;51.856;6.314;2024-01-27T13:57:10;11.05;;;4.10;;
42346;SDS011;75728;51.856;6.314;2024-01-27T13:59:36;12.10;;;3.28;;
42346;SDS011;75728;51.856;6.314;2024-01-27T14:02:02;13.68;;;6.15;;
42346;SDS011;75728;51.856;6.314;2024-01-27T14:04:28;14.65;;;4.63;;
42346;SDS011;75728;51.856;6.314;2024-01-27T14:06:54;13.70;;;4.93;;
42346;SDS011;75728;51.856;6.314;2024-01-27T14:09:21;12.50;;;4.82;;
42346;SDS011;75728;51.856;6.314;2024-01-27T14:11:50;16.88;;;4.82;;
42346;SDS011;75728;51.856;6.314;2024-01-27T14:14:15;14.15;;;4.78;;
42346;SDS011;75728;51.856;6.314;2024-01-27T14:16:44;12.23;;;4.35;;
42346;SDS011;75728;51.856;6.314;2024-01-27T14:19:11;15.20;;;4.50;;
42346;SDS011;75728;51.856;6.314;2024-01-27T14:21:38;12.52;;;3.60;;
42346;SDS011;75728;51.856;6.314;2024-01-27T14:24:05;11.65;;;3.53;;
42346;SDS011;75728;51.856;6.314;2024-01-27T14:26:34;13.30;;;3.47;;
42346;SDS011;75728;51.856;6.314;2024-01-27T14:29:00;11.70;;;2.97;;
42346;SDS011;75728;51.856;6.314;2024-01-27T14:31:25;11.63;;;3.97;;
42346;SDS011;75728;51.856;6.314;2024-01-27T14:33:51;10.43;;;3.28;;
42346;SDS011;75728;51.856;6.314;2024-01-27T14:36:16;14.05;;;4.43;;